Time;durP1;ratioP1;P1;durP2;ratioP2;P2;SDS_P1;SDS_P2;PMS_P1;PMS_P2;Temp;Humidity;BMP_temperature;BMP_pressure;BME280_temperature;BME280_humidity;BME280_pressure;Samples;Min_cycle;Max_cycle;Signal;HPM_P1;HPM_P2
2022/04/14 00:00:45;;;;;;;;;;;;;;;;;;;;;
2022/04/14 00:03:22;;;;;;;22.20;18.80;;;;;;;9.02;39.30;100834.73;110866;1250;22201;-76
2022/04/14 00:05:55;;;;;;;26.70;18.10;;;;;;;9.03;39.43;100834.98;110826;1250;22571;-76
2022/04/14 00:08:26;;;;;;;23.60;17.90;;;;;;;9.05;39.41;100831.80;110871;1250;21973;-77
2022/04/14 00:11:07;;;;;;;25.90;18.20;;;;;;;9.05;39.35;100829.89;110596;1250;22972;-76
2022/04/14 00:13:53;;;;;;;24.80;19.00;;;;;;;9.05;39.23;100829.20;110671;1250;21945;-77
2022/04/14 00:16:34;;;;;;;34.20;22.10;;;;;;;9.01;39.28;100830.08;110634;1251;23794;-78
2022/04/14 00:19:13;;;;;;;34.00;24.70;;;;;;;8.98;39.33;100834.36;110677;1250;24356;-77
2022/04/14 00:22:03;;;;;;;32.80;23.20;;;;;;;8.94;39.47;100835.50;110441;1253;21962;-77
2022/04/14 00:24:43;;;;;;;33.20;24.00;;;;;;;8.89;39.41;100834.73;110290;1253;23574;-77
2022/04/14 00:27:32;;;;;;;32.10;23.70;;;;;;;8.85;39.53;100832.09;110617;1253;22719;-78
2022/04/14 00:30:17;;;;;;;27.30;20.30;;;;;;;8.82;39.69;100828.02;110576;1253;21963;-77
2022/04/14 00:33:03;;;;;;;28.20;19.80;;;;;;;8.79;39.75;100828.48;110629;1254;22000;-78
2022/04/14 00:36:06;;;;;;;24.60;18.60;;;;;;;8.76;39.89;100826.30;110508;1254;21968;-77
2022/04/14 00:39:19;;;;;;;;;;;;;;;;;;;;;
2022/04/14 00:42:33;;;;;;;27.20;19.80;;;;;;;8.72;40.10;100829.70;110948;1248;22771;-77
2022/04/14 00:45:19;;;;;;;26.00;18.00;;;;;;;8.70;40.10;100828.04;110883;1248;21959;-77
2022/04/14 00:48:17;;;;;;;23.10;18.40;;;;;;;8.68;40.11;100826.16;110624;1253;23577;-77
2022/04/14 00:51:02;;;;;;;24.10;17.80;;;;;;;8.65;40.17;100820.46;109967;1259;23039;-77
2022/04/14 00:53:52;;;;;;;23.60;18.40;;;;;;;8.64;40.27;100818.27;109241;1265;22327;-77
2022/04/14 00:56:32;;;;;;;27.30;19.60;;;;;;;8.62;40.29;100816.39;109176;1265;23171;-76
2022/04/14 00:59:05;;;;;;;27.00;20.30;;;;;;;8.60;40.37;100814.09;109177;1266;21978;-76
2022/04/14 01:01:43;;;;;;;35.30;26.80;;;;;;;8.60;40.36;100813.70;109279;1266;23680;-77
2022/04/14 01:04:13;;;;;;;32.00;22.40;;;;;;;8.57;40.38;100810.02;109216;1266;22743;-76
2022/04/14 01:06:48;;;;;;;37.60;26.60;;;;;;;8.53;40.47;100809.66;108835;1272;24303;-77
2022/04/14 01:09:19;;;;;;;32.90;24.20;;;;;;;8.51;40.57;100813.69;109112;1265;22770;-76
2022/04/14 01:11:52;;;;;;;35.50;24.70;;;;;;;8.51;40.64;100815.84;109671;1256;22374;-76
2022/04/14 01:14:27;;;;;;;30.40;21.60;;;;;;;8.50;40.60;100812.18;110141;1259;21963;-77
2022/04/14 01:17:02;;;;;;;32.70;23.40;;;;;;;8.48;40.67;100814.29;109535;1263;23655;-76
2022/04/14 01:19:36;;;;;;;31.90;23.00;;;;;;;8.46;40.70;100814.13;109272;1263;21941;-77
2022/04/14 01:22:18;;;;;;;28.50;20.00;;;;;;;8.44;40.73;100815.22;109305;1264;22199;-76
2022/04/14 01:24:47;;;;;;;30.10;20.90;;;;;;;8.39;40.66;100813.39;109609;1259;22803;-77
2022/04/14 01:27:17;;;;;;;27.70;18.80;;;;;;;8.36;40.77;100817.85;110171;1260;23602;-76
2022/04/14 01:29:52;;;;;;;27.20;20.10;;;;;;;8.31;40.80;100814.98;110170;1260;21980;-76
2022/04/14 01:32:22;;;;;;;23.20;18.00;;;;;;;8.28;40.93;100818.05;109626;1259;22113;-76
2022/04/14 01:34:52;;;;;;;27.10;20.40;;;;;;;8.26;40.85;100818.30;110106;1256;22303;-75
2022/04/14 01:37:26;;;;;;;26.80;19.30;;;;;;;8.23;40.98;100815.88;110400;1254;23690;-77
2022/04/14 01:40:12;;;;;;;24.30;18.40;;;;;;;8.20;41.05;100811.80;110525;1253;22951;-77
2022/04/14 01:46:08;;;;;;;30.00;20.20;;;;;;;8.12;41.10;100813.80;110195;1259;21980;-79
2022/04/14 01:49:25;;;;;;;29.80;19.60;;;;;;;8.03;41.23;100815.29;109599;1262;21987;-78
2022/04/14 01:52:29;;;;;;;30.40;20.50;;;;;;;7.97;41.42;100814.73;108987;1267;21983;-77
2022/04/14 01:55:03;;;;;;;25.70;19.90;;;;;;;7.95;41.47;100812.64;108842;1267;22002;-77
2022/04/14 01:57:41;;;;;;;28.30;21.10;;;;;;;7.94;41.56;100808.41;109328;1262;22213;-77
2022/04/14 02:00:16;;;;;;;27.30;20.00;;;;;;;7.94;41.65;100806.98;109594;1260;23575;-76
2022/04/14 02:02:50;;;;;;;28.20;20.10;;;;;;;7.90;41.61;100804.94;109595;1260;23725;-76
2022/04/14 02:05:23;;;;;;;27.30;20.10;;;;;;;7.84;41.67;100801.39;109813;1260;22275;-76
2022/04/14 02:07:56;;;;;;;28.30;22.60;;;;;;;7.83;41.87;100801.88;110064;1260;22037;-76
2022/04/14 02:10:26;;;;;;;;;;;;;;;7.81;41.78;100803.05;110157;1254;23585;-77
2022/04/14 02:13:04;;;;;;;32.40;22.10;;;;;;;7.72;41.92;100805.33;110157;1258;21974;-77
2022/04/14 02:15:37;;;;;;;27.30;20.10;;;;;;;7.66;42.07;100803.23;110021;1257;23067;-77
2022/04/14 02:18:13;;;;;;;28.70;21.20;;;;;;;7.64;42.17;100795.70;110206;1257;22856;-77
2022/04/14 02:21:00;;;;;;;32.20;21.60;;;;;;;7.62;42.27;100793.04;110085;1255;22474;-78
2022/04/14 02:23:41;;;;;;;31.00;22.10;;;;;;;7.60;42.35;100793.78;110267;1256;21973;-76
2022/04/14 02:26:16;;;;;;;31.30;22.50;;;;;;;7.58;42.43;100793.05;110422;1255;22105;-77
2022/04/14 02:28:55;;;;;;;35.40;21.20;;;;;;;7.55;42.45;100792.59;110321;1255;22074;-77
2022/04/14 02:31:38;;;;;;;33.70;21.80;;;;;;;7.52;42.47;100790.95;110527;1249;23683;-77
2022/04/14 02:34:20;;;;;;;39.00;23.10;;;;;;;7.50;42.48;100788.50;110595;1249;23165;-76
2022/04/14 02:36:57;;;;;;;33.00;22.00;;;;;;;7.48;42.61;100785.35;110579;1250;21958;-76
2022/04/14 02:39:33;;;;;;;32.20;22.10;;;;;;;7.46;42.68;100782.40;110580;1251;23610;-78
2022/04/14 02:43:04;;;;;;;33.80;20.60;;;;;;;7.41;42.81;100776.73;110850;1248;21964;-78
2022/04/14 02:45:59;;;;;;;31.10;22.10;;;;;;;7.38;42.89;100775.45;110781;1249;22929;-76
2022/04/14 02:48:47;;;;;;;34.40;21.90;;;;;;;7.37;42.75;100770.26;110734;1250;21990;-77
2022/04/14 02:51:56;;;;;;;33.10;20.80;;;;;;;7.38;43.02;100769.48;110940;1247;22417;-78
2022/04/14 02:54:53;;;;;;;30.60;22.80;;;;;;;7.40;42.87;100771.14;110850;1250;22261;-77
2022/04/14 02:57:46;;;;;;;31.10;22.70;;;;;;;7.39;42.84;100767.40;110869;1248;21962;-77
2022/04/14 03:00:38;;;;;;;34.50;24.20;;;;;;;7.39;42.90;100764.99;110796;1247;23706;-77
2022/04/14 03:03:14;;;;;;;35.00;25.60;;;;;;;7.41;42.89;100762.69;110901;1247;21950;-77
2022/04/14 03:05:54;;;;;;;36.40;24.10;;;;;;;7.40;42.82;100763.85;110496;1255;22958;-77
2022/04/14 03:08:23;;;;;;;37.20;26.50;;;;;;;7.35;42.92;100767.95;110523;1254;21964;-75
2022/04/14 03:10:59;;;;;;;44.20;26.50;;;;;;;7.30;42.99;100770.67;110679;1253;24009;-76
2022/04/14 03:13:28;;;;;;;33.60;24.40;;;;;;;7.26;43.11;100769.10;110219;1257;21963;-77
2022/04/14 03:15:57;;;;;;;35.80;23.00;;;;;;;7.22;43.23;100767.67;109544;1263;21995;-76
2022/04/14 03:18:29;;;;;;;33.90;22.80;;;;;;;7.18;43.25;100766.98;109243;1264;22046;-76
2022/04/14 03:21:03;;;;;;;33.80;23.50;;;;;;;7.14;43.30;100763.88;109209;1264;22305;-76
2022/04/14 03:23:38;;;;;;;28.70;19.70;;;;;;;7.03;43.46;100759.38;109389;1259;23042;-77
2022/04/14 03:26:17;;;;;;;34.30;20.80;;;;;;;6.99;43.53;100752.21;108958;1267;23248;-77
2022/04/14 03:28:56;;;;;;;31.70;22.00;;;;;;;6.98;43.59;100750.91;108805;1270;23117;-77
2022/04/14 03:31:25;;;;;;;27.90;20.70;;;;;;;6.98;43.65;100750.36;108899;1265;23596;-77
2022/04/14 03:33:55;;;;;;;34.40;20.20;;;;;;;6.99;43.65;100751.02;109278;1260;22105;-78
2022/04/14 03:36:25;;;;;;;31.60;21.10;;;;;;;6.96;43.78;100750.17;109837;1260;21980;-78
2022/04/14 03:38:57;;;;;;;30.60;21.40;;;;;;;6.94;43.87;100745.49;109225;1263;21991;-77
2022/04/14 03:41:34;;;;;;;26.70;20.60;;;;;;;6.91;43.88;100740.84;109266;1264;23602;-76
2022/04/14 03:44:10;;;;;;;28.80;20.40;;;;;;;6.89;43.91;100741.39;108979;1264;22968;-77
2022/04/14 03:46:47;;;;;;;27.30;20.20;;;;;;;6.87;43.88;100742.23;109364;1260;23700;-77
2022/04/14 03:49:23;;;;;;;24.50;18.60;;;;;;;6.85;43.95;100741.39;109956;1260;22349;-76
2022/04/14 03:51:54;;;;;;;25.60;19.10;;;;;;;6.83;44.05;100736.25;109656;1260;22030;-77
2022/04/14 03:54:24;;;;;;;26.50;19.00;;;;;;;6.82;44.04;100733.55;109214;1266;24258;-77
2022/04/14 03:56:56;;;;;;;29.60;19.40;;;;;;;6.80;44.00;100732.50;109343;1261;23047;-77
2022/04/14 03:59:31;;;;;;;25.60;19.20;;;;;;;6.78;43.97;100729.15;109897;1261;22677;-76
2022/04/14 04:02:11;;;;;;;32.00;22.40;;;;;;;6.77;44.17;100725.77;109919;1253;23677;-76
2022/04/14 04:04:51;;;;;;;27.20;19.20;;;;;;;6.76;44.29;100720.56;110245;1254;21962;-76
2022/04/14 04:07:35;;;;;;;31.00;19.90;;;;;;;6.77;44.39;100722.31;109504;1260;21977;-78
2022/04/14 04:10:06;;;;;;;30.30;20.00;;;;;;;6.76;44.40;100727.27;109816;1260;21966;-76
2022/04/14 04:12:41;;;;;;;26.50;19.00;;;;;;;6.76;44.40;100725.18;110156;1254;21971;-76
2022/04/14 04:15:16;;;;;;;24.20;18.90;;;;;;;6.75;44.48;100724.36;109411;1262;21976;-76
2022/04/14 04:17:51;;;;;;;26.00;19.50;;;;;;;6.76;44.51;100727.45;109655;1263;21992;-77
2022/04/14 04:20:57;;;;;;;27.40;19.80;;;;;;;6.78;44.58;100726.54;109005;1267;23620;-77
2022/04/14 04:23:34;;;;;;;29.30;19.80;;;;;;;6.82;44.56;100724.23;109014;1267;23858;-77
2022/04/14 04:26:05;;;;;;;28.60;19.70;;;;;;;6.85;44.53;100731.20;109083;1267;22439;-77
2022/04/14 04:28:41;;;;;;;32.70;20.40;;;;;;;6.90;44.55;100732.71;108892;1267;21985;-75
2022/04/14 04:31:13;;;;;;;30.20;20.30;;;;;;;6.95;44.58;100730.30;108953;1261;21987;-76
2022/04/14 04:33:45;;;;;;;;;;;;;;;7.02;44.50;100728.52;109175;1267;23601;-78
2022/04/14 04:36:17;;;;;;;29.10;19.70;;;;;;;7.03;44.61;100729.95;108738;1271;22004;-78
2022/04/14 04:38:50;;;;;;;36.60;23.10;;;;;;;7.12;44.65;100729.18;108517;1273;21996;-77
2022/04/14 04:41:21;;;;;;;29.10;20.70;;;;;;;7.24;44.62;100727.60;109150;1263;21973;-77
2022/04/14 04:43:51;;;;;;;32.70;21.70;;;;;;;7.38;44.54;100728.64;109240;1264;23898;-75
2022/04/14 04:46:36;;;;;;;39.00;24.30;;;;;;;7.52;44.36;100728.20;109920;1261;24160;-76
2022/04/14 04:49:10;;;;;;;48.10;29.20;;;;;;;7.66;44.10;100727.27;109625;1261;21968;-76
2022/04/14 04:51:50;;;;;;;42.10;26.60;;;;;;;7.82;43.95;100726.40;109724;1260;22142;-77
2022/04/14 04:54:40;;;;;;;39.90;24.50;;;;;;;7.99;43.90;100724.12;109431;1259;22749;-77
2022/04/14 04:57:41;;;;;;;36.20;24.20;;;;;;;8.17;43.49;100726.85;110334;1254;23594;-76
2022/04/14 05:00:11;;;;;;;36.90;22.00;;;;;;;8.33;43.43;100732.55;110702;1253;23790;-78
2022/04/14 05:03:00;;;;;;;39.40;24.60;;;;;;;8.53;43.23;100735.46;110629;1252;22064;-76
2022/04/14 05:05:33;;;;;;;34.70;23.30;;;;;;;8.71;43.03;100730.85;110451;1254;21967;-77
2022/04/14 05:08:08;;;;;;;38.40;24.50;;;;;;;8.87;42.66;100727.55;110621;1253;23552;-77
2022/04/14 05:10:45;;;;;;;30.80;21.70;;;;;;;9.01;42.41;100725.20;109942;1260;22324;-78
2022/04/14 05:13:24;;;;;;;30.50;21.00;;;;;;;9.15;42.23;100725.90;109828;1256;21979;-77
2022/04/14 05:16:11;;;;;;;29.40;21.30;;;;;;;9.33;42.19;100725.98;110396;1256;21964;-76
2022/04/14 05:18:56;;;;;;;;;;;;;;;9.53;42.18;100720.98;110312;1253;21961;-77
2022/04/14 05:21:29;;;;;;;25.80;17.50;;;;;;;9.68;42.05;100725.50;110463;1256;21929;-77
2022/04/14 05:24:26;;;;;;;27.40;18.70;;;;;;;9.85;41.87;100729.70;110502;1254;23901;-83
2022/04/14 05:27:48;;;;;;;23.80;18.50;;;;;;;10.10;41.61;100728.77;110437;1254;21972;-78
2022/04/14 05:31:11;;;;;;;30.50;19.70;;;;;;;10.39;41.25;100729.39;111152;1247;21955;-79
2022/04/14 05:34:13;;;;;;;29.00;18.50;;;;;;;10.58;40.53;100731.66;111102;1247;21949;-78
2022/04/14 05:36:47;;;;;;;25.00;17.60;;;;;;;10.71;40.38;100731.34;111027;1248;22740;-79
2022/04/14 05:39:51;;;;;;;23.20;17.60;;;;;;;10.81;39.95;100728.08;110832;1248;22455;-78
2022/04/14 05:42:56;;;;;;;24.40;17.70;;;;;;;10.86;39.69;100726.19;110841;1249;23820;-77
2022/04/14 05:45:30;;;;;;;23.30;16.80;;;;;;;10.92;39.66;100725.67;110805;1248;21964;-77
2022/04/14 05:48:21;;;;;;;28.20;18.20;;;;;;;11.05;39.84;100727.27;111104;1247;21949;-79
2022/04/14 05:50:58;;;;;;;24.40;16.80;;;;;;;11.19;39.59;100731.60;110880;1247;24033;-78
2022/04/14 05:53:32;;;;;;;25.20;18.50;;;;;;;11.36;39.47;100730.40;110959;1247;23612;-78
2022/04/14 05:56:30;;;;;;;28.60;17.90;;;;;;;11.56;39.32;100726.88;110703;1253;23770;-78
2022/04/14 05:59:07;;;;;;;25.00;18.10;;;;;;;11.63;38.45;100730.96;110572;1253;21972;-77
2022/04/14 06:01:37;;;;;;;22.90;18.00;;;;;;;11.72;38.46;100729.31;110458;1253;21940;-77
2022/04/14 06:04:15;;;;;;;26.00;17.70;;;;;;;11.83;38.35;100734.53;110563;1253;22149;-77
2022/04/14 06:06:50;;;;;;;22.80;18.80;;;;;;;11.92;38.17;100737.75;110445;1253;21954;-78
2022/04/14 06:09:26;;;;;;;29.50;19.00;;;;;;;11.99;38.06;100741.75;110469;1253;22003;-77
2022/04/14 06:12:20;;;;;;;24.40;18.30;;;;;;;12.11;37.92;100740.46;110578;1253;23896;-76
2022/04/14 06:15:06;;;;;;;25.90;17.90;;;;;;;12.21;37.70;100737.96;110797;1247;21956;-77
2022/04/14 06:17:43;;;;;;;24.30;18.70;;;;;;;12.33;37.74;100740.16;110697;1248;21957;-78
2022/04/14 06:20:22;;;;;;;29.00;20.30;;;;;;;12.55;37.81;100743.24;110890;1249;21979;-78
2022/04/14 06:23:07;;;;;;;30.30;20.70;;;;;;;12.79;37.43;100746.92;111121;1248;21955;-78
2022/04/14 06:26:00;;;;;;;33.10;21.60;;;;;;;12.97;37.05;100740.84;110863;1250;22408;-77
2022/04/14 06:28:46;;;;;;;27.70;19.80;;;;;;;13.16;37.16;100739.91;110735;1253;22128;-76
2022/04/14 06:32:20;;;;;;;;;;;;;;;;;;;;;
2022/04/14 06:35:58;;;;;;;26.60;19.50;;;;;;;13.95;36.52;100739.36;110069;1260;22084;-78
2022/04/14 06:38:34;;;;;;;30.40;20.60;;;;;;;14.35;36.57;100731.63;109438;1262;22991;-77
2022/04/14 06:41:06;;;;;;;27.10;20.40;;;;;;;14.81;35.85;100726.98;109632;1260;22757;-76
2022/04/14 06:43:45;;;;;;;26.80;21.00;;;;;;;15.03;34.42;100724.29;109629;1260;23432;-77
2022/04/14 06:46:16;;;;;;;28.20;20.20;;;;;;;15.10;34.20;100723.45;109918;1257;23101;-76
2022/04/14 06:48:58;;;;;;;30.00;23.70;;;;;;;15.11;33.96;100721.46;109756;1258;21975;-77
2022/04/14 06:51:30;;;;;;;27.10;21.60;;;;;;;15.09;33.81;100718.98;109424;1261;21976;-76
2022/04/14 06:54:10;;;;;;;29.20;21.80;;;;;;;15.10;33.94;100718.39;109693;1262;21980;-77
2022/04/14 06:57:58;;;;;;;25.20;21.10;;;;;;;15.30;34.47;100715.27;109840;1260;21982;-77
2022/04/14 07:01:32;;;;;;;26.70;20.80;;;;;;;15.57;33.64;100718.73;109201;1267;22058;-76
2022/04/14 07:04:16;;;;;;;31.40;22.10;;;;;;;15.73;33.58;100716.38;108974;1268;22049;-77
2022/04/14 07:06:49;;;;;;;25.90;19.40;;;;;;;15.95;33.65;100717.29;108904;1267;21978;-75
2022/04/14 07:09:38;;;;;;;26.00;20.70;;;;;;;16.19;33.44;100717.83;109167;1263;23046;-77
2022/04/14 07:12:13;;;;;;;29.00;19.00;;;;;;;16.37;32.97;100718.42;109859;1253;21946;-76
2022/04/14 07:14:49;;;;;;;28.10;20.90;;;;;;;16.55;32.84;100719.13;109967;1259;21986;-76
2022/04/14 07:17:22;;;;;;;29.80;22.30;;;;;;;16.72;32.64;100714.27;109798;1261;21983;-78
2022/04/14 07:20:03;;;;;;;31.80;21.80;;;;;;;16.90;32.48;100716.21;110367;1254;21994;-77
2022/04/14 07:22:46;;;;;;;27.90;22.20;;;;;;;17.06;32.40;100712.49;110447;1255;22072;-77
2022/04/14 07:25:29;;;;;;;27.90;21.00;;;;;;;17.45;32.62;100711.81;109995;1259;21950;-76
2022/04/14 07:28:01;;;;;;;29.40;22.20;;;;;;;17.91;32.39;100713.98;110032;1258;23038;-77
2022/04/14 07:30:39;;;;;;;29.60;22.20;;;;;;;18.29;31.57;100710.89;110330;1259;23081;-75
2022/04/14 07:33:20;;;;;;;30.70;23.30;;;;;;;18.66;31.03;100710.77;110329;1254;23077;-76
2022/04/14 07:36:11;;;;;;;27.00;22.60;;;;;;;18.78;30.31;100710.09;110426;1254;21957;-75
2022/04/14 07:39:18;;;;;;;241.80;41.90;;;;;;;18.81;30.06;100707.77;110499;1254;23631;-79
2022/04/14 07:42:18;;;;;;;35.60;26.70;;;;;;;18.86;30.29;100705.69;110125;1258;22691;-79
2022/04/14 07:45:48;;;;;;;25.00;22.20;;;;;;;19.00;30.53;100699.23;110717;1252;22665;-80
2022/04/14 07:49:10;;;;;;;32.20;21.80;;;;;;;19.11;30.08;100697.19;110617;1252;22020;-78
2022/04/14 07:51:57;;;;;;;28.60;20.90;;;;;;;19.24;30.00;100695.75;110553;1253;22434;-79
2022/04/14 07:54:44;;;;;;;29.30;22.10;;;;;;;19.34;29.95;100696.14;110608;1253;21975;-79
2022/04/14 07:57:44;;;;;;;26.00;20.30;;;;;;;19.52;29.63;100697.44;108539;1256;2936864;-80
2022/04/14 08:00:57;;;;;;;29.00;22.00;;;;;;;19.53;29.41;100697.14;110161;1260;21964;-78
2022/04/14 08:03:35;;;;;;;28.70;20.60;;;;;;;19.59;29.61;100693.05;108990;1267;23082;-76
2022/04/14 08:06:16;;;;;;;26.90;21.90;;;;;;;19.77;29.36;100692.15;108566;1270;23774;-76
2022/04/14 08:08:53;;;;;;;27.80;22.90;;;;;;;19.91;29.22;100691.52;108733;1270;22093;-76
2022/04/14 08:11:23;;;;;;;32.00;26.30;;;;;;;19.97;29.11;100691.17;108530;1270;23682;-76
2022/04/14 08:13:53;;;;;;;28.60;21.20;;;;;;;20.18;29.55;100688.64;108698;1270;23736;-76
2022/04/14 08:16:36;;;;;;;24.60;19.40;;;;;;;20.36;28.64;100686.10;108525;1270;22412;-74
2022/04/14 08:19:06;;;;;;;28.40;21.20;;;;;;;20.34;28.39;100687.01;108949;1267;21977;-76
2022/04/14 08:21:39;;;;;;;29.90;21.70;;;;;;;20.39;28.96;100682.71;109080;1267;22030;-76
2022/04/14 08:24:09;;;;;;;30.20;23.60;;;;;;;20.61;28.69;100683.72;109278;1264;23703;-74
2022/04/14 08:26:48;;;;;;;;;;;;;;;;;;;;;
2022/04/14 08:29:38;;;;;;;29.50;23.20;;;;;;;20.91;28.24;100683.53;110344;1254;22629;-75
2022/04/14 08:33:07;;;;;;;29.10;25.90;;;;;;;21.17;28.30;100676.14;110291;1256;23042;-75
2022/04/14 08:36:53;;;;;;;;;;;;;;;;;;;;;
2022/04/14 08:40:25;;;;;;;27.20;22.20;;;;;;;21.57;27.82;100684.92;109967;1260;24747;-75
2022/04/14 08:43:09;;;;;;;23.70;20.90;;;;;;;21.89;27.53;100689.68;109231;1267;23946;-76
2022/04/14 08:46:09;;;;;;;;;;;;;;;;;;;;;
2022/04/14 08:49:04;;;;;;;26.00;22.00;;;;;;;21.73;26.74;100682.70;109292;1266;21996;-76
2022/04/14 08:51:44;;;;;;;27.00;20.80;;;;;;;21.75;27.42;100682.95;109368;1265;22754;-76
2022/04/14 08:54:22;;;;;;;24.70;19.20;;;;;;;22.03;27.43;100684.78;109523;1257;22336;-77
2022/04/14 08:57:02;;;;;;;29.60;21.80;;;;;;;22.11;27.05;100679.14;110230;1257;22033;-76
2022/04/14 08:59:32;;;;;;;29.30;24.80;;;;;;;22.26;27.57;100680.84;109997;1257;24366;-76
2022/04/14 09:02:04;;;;;;;26.80;23.60;;;;;;;22.41;27.01;100674.05;110501;1253;22065;-75
2022/04/14 09:04:38;;;;;;;26.80;23.60;;;;;;;22.50;27.01;100669.16;110675;1253;21950;-77
2022/04/14 09:07:12;;;;;;;26.30;23.40;;;;;;;22.56;26.92;100671.34;110342;1254;22641;-74
2022/04/14 09:09:42;;;;;;;28.10;24.00;;;;;;;22.61;27.02;100671.73;110219;1259;23586;-76
2022/04/14 09:12:13;;;;;;;25.30;22.00;;;;;;;22.72;27.02;100670.77;109979;1259;21999;-79
2022/04/14 09:14:48;;;;;;;26.00;20.90;;;;;;;22.88;26.87;100668.67;109596;1264;23045;-78
2022/04/14 09:17:19;;;;;;;22.80;20.20;;;;;;;22.90;26.14;100669.84;109382;1265;21975;-78
2022/04/14 09:19:48;;;;;;;22.00;19.70;;;;;;;22.63;25.98;100670.09;109601;1264;21966;-78
2022/04/14 09:22:20;;;;;;;22.60;19.30;;;;;;;22.42;26.18;100669.48;109466;1263;21984;-78
2022/04/14 09:24:55;;;;;;;23.30;20.10;;;;;;;22.41;26.61;100666.77;109628;1261;22022;-78
2022/04/14 09:27:39;;;;;;;25.20;21.50;;;;;;;22.56;26.79;100663.63;109831;1257;22036;-78
2022/04/14 09:30:09;;;;;;;29.60;23.40;;;;;;;22.80;26.70;100656.88;110375;1257;21962;-81
2022/04/14 09:32:44;;;;;;;26.00;23.10;;;;;;;22.85;25.95;100656.52;110512;1249;21972;-81
2022/04/14 09:35:21;;;;;;;27.40;24.40;;;;;;;22.61;25.71;100657.10;110859;1253;24458;-79
2022/04/14 09:38:08;;;;;;;27.40;22.20;;;;;;;22.41;25.94;100650.79;110545;1254;22743;-75
2022/04/14 09:40:38;;;;;;;27.90;24.90;;;;;;;22.24;26.20;100648.99;110670;1253;23594;-76
2022/04/14 09:43:07;;;;;;;28.00;23.80;;;;;;;22.13;26.49;100648.69;110633;1253;21961;-78
2022/04/14 09:45:49;;;;;;;26.20;21.50;;;;;;;22.18;27.10;100635.96;110609;1253;23696;-75
2022/04/14 09:48:29;;;;;;;27.00;24.20;;;;;;;22.41;26.83;100634.42;110786;1253;21960;-77
2022/04/14 09:50:58;;;;;;;24.60;21.50;;;;;;;22.64;26.44;100628.35;110701;1253;22458;-78
2022/04/14 09:53:30;;;;;;;30.70;25.10;;;;;;;22.82;26.08;100627.53;110310;1253;23717;-80
2022/04/14 09:56:01;;;;;;;23.30;20.50;;;;;;;23.04;26.38;100625.48;110623;1253;23632;-79
2022/04/14 09:58:31;;;;;;;25.00;20.80;;;;;;;23.30;25.79;100626.77;110426;1253;22846;-80
2022/04/14 10:01:00;;;;;;;24.80;19.50;;;;;;;23.48;25.61;100622.11;110404;1256;22850;-79
2022/04/14 10:03:31;;;;;;;23.40;20.90;;;;;;;23.82;25.25;100623.20;109946;1261;21969;-79
2022/04/14 10:06:07;;;;;;;21.30;15.90;;;;;;;24.10;24.52;100615.90;109910;1261;23736;-79
2022/04/14 10:08:51;;;;;;;18.50;15.60;;;;;;;24.30;23.82;100610.92;110066;1260;23837;-80
2022/04/14 10:11:30;;;;;;;28.70;19.70;;;;;;;24.48;23.35;100613.04;110308;1254;21968;-80
2022/04/14 10:14:15;;;;;;;28.60;19.40;;;;;;;24.80;23.77;100613.52;110075;1259;22061;-79
2022/04/14 10:16:52;;;;;;;21.40;18.10;;;;;;;25.29;23.14;100616.06;110053;1259;21992;-81
2022/04/14 10:19:23;;;;;;;26.30;18.50;;;;;;;25.58;22.75;100615.36;110164;1259;23576;-79
2022/04/14 10:21:54;;;;;;;20.00;15.80;;;;;;;25.91;22.52;100612.97;110429;1253;21967;-78
2022/04/14 10:24:24;;;;;;;20.80;15.80;;;;;;;26.31;22.48;100612.86;110623;1253;22157;-80
2022/04/14 10:26:56;;;;;;;17.80;14.80;;;;;;;26.57;21.68;100612.05;110305;1257;23073;-78
2022/04/14 10:29:26;;;;;;;16.40;12.40;;;;;;;26.64;21.66;100608.86;110044;1259;21963;-78
2022/04/14 10:31:57;;;;;;;17.70;13.70;;;;;;;26.90;21.47;100610.19;110340;1253;21964;-79
2022/04/14 10:34:27;;;;;;;16.60;12.40;;;;;;;27.07;20.68;100606.41;110741;1253;23041;-79
2022/04/14 10:36:57;;;;;;;16.00;11.40;;;;;;;27.17;20.50;100605.94;110660;1253;21933;-79
2022/04/14 10:39:30;;;;;;;16.70;14.10;;;;;;;27.25;20.10;100606.09;110781;1253;23669;-78
2022/04/14 10:42:01;;;;;;;19.50;14.70;;;;;;;27.13;20.12;100601.70;110602;1253;22010;-78
2022/04/14 10:44:48;;;;;;;11.70;10.60;;;;;;;27.10;20.56;100597.63;110615;1247;22916;-80
2022/04/14 10:47:43;;;;;;;14.90;10.20;;;;;;;26.81;19.96;100603.19;110943;1254;22030;-82
2022/04/14 10:50:31;;;;;;;12.80;10.60;;;;;;;26.42;20.09;100600.45;111092;1254;22478;-80
2022/04/14 10:53:09;;;;;;;12.80;10.90;;;;;;;26.11;20.19;100593.34;110932;1254;21945;-80
2022/04/14 10:55:43;;;;;;;;;;;;;;;25.77;20.45;100594.42;111036;1253;22071;-81
2022/04/14 10:58:29;;;;;;;12.00;10.00;;;;;;;25.56;20.71;100595.05;110909;1256;22388;-82
2022/04/14 11:01:05;;;;;;;13.20;11.70;;;;;;;25.32;21.20;100592.30;110844;1255;21977;-82
2022/04/14 11:03:52;;;;;;;18.50;12.70;;;;;;;25.20;21.70;100592.59;110358;1259;23037;-81
2022/04/14 11:06:40;;;;;;;16.10;12.80;;;;;;;24.95;21.81;100582.91;110599;1254;22309;-82
2022/04/14 11:09:44;;;;;;;14.70;13.10;;;;;;;24.82;22.32;100578.97;110633;1259;22486;-81
2022/04/14 11:12:38;;;;;;;17.20;12.90;;;;;;;24.71;22.52;100575.61;110558;1260;23010;-80
2022/04/14 11:15:09;;;;;;;17.10;14.00;;;;;;;24.62;22.89;100578.02;109539;1264;21979;-79
2022/04/14 11:17:47;;;;;;;18.40;14.50;;;;;;;24.45;22.61;100578.86;109464;1267;23076;-81
2022/04/14 11:20:37;;;;;;;15.10;13.30;;;;;;;24.12;22.90;100569.67;109527;1266;22326;-78
2022/04/14 11:23:15;;;;;;;15.90;13.60;;;;;;;23.97;23.77;100566.25;109962;1259;21974;-78
2022/04/14 11:26:11;;;;;;;17.00;13.00;;;;;;;23.86;23.82;100567.30;110253;1259;22076;-82
2022/04/14 11:28:43;;;;;;;16.70;12.50;;;;;;;23.71;24.18;100565.98;109694;1260;21938;-80
2022/04/14 11:31:19;;;;;;;13.40;8.00;;;;;;;23.56;24.13;100565.85;110007;1263;22112;-80
2022/04/14 11:33:54;;;;;;;15.20;8.10;;;;;;;23.34;23.95;100564.30;110580;1255;22012;-77
2022/04/14 11:36:40;;;;;;;11.30;9.20;;;;;;;23.14;24.05;100560.11;110350;1256;22440;-81
2022/04/14 11:39:23;;;;;;;12.70;8.10;;;;;;;23.07;24.25;100558.34;110840;1255;21978;-80
2022/04/14 11:42:06;;;;;;;10.60;7.70;;;;;;;23.07;24.42;100559.26;109987;1261;24037;-79
2022/04/14 11:44:36;;;;;;;11.40;7.50;;;;;;;23.06;24.45;100556.65;109991;1261;21968;-79
2022/04/14 11:47:07;;;;;;;11.80;8.80;;;;;;;22.98;24.63;100558.73;109746;1261;21987;-81
2022/04/14 11:49:37;;;;;;;12.50;8.40;;;;;;;22.91;24.71;100556.02;110704;1259;21985;-80
2022/04/14 11:52:11;;;;;;;13.50;10.20;;;;;;;22.86;24.86;100556.18;110331;1261;21936;-81
2022/04/14 11:54:45;;;;;;;11.20;9.20;;;;;;;22.83;25.13;100552.80;110715;1261;21966;-82
2022/04/14 11:57:28;;;;;;;9.50;8.40;;;;;;;22.77;24.88;100546.44;109869;1260;22823;-79
2022/04/14 12:00:11;;;;;;;14.60;9.50;;;;;;;22.70;25.08;100549.79;109877;1259;21968;-79
2022/04/14 12:02:54;;;;;;;10.80;9.80;;;;;;;22.71;25.24;100545.54;109901;1260;21968;-77
2022/04/14 12:05:23;;;;;;;11.10;9.90;;;;;;;22.71;25.06;100534.60;109311;1262;23222;-80
2022/04/14 12:08:10;;;;;;;12.60;10.00;;;;;;;22.71;25.16;100530.13;109850;1261;22067;-78
2022/04/14 12:10:43;;;;;;;12.00;9.90;;;;;;;22.70;25.22;100528.49;109610;1260;22302;-77
2022/04/14 12:13:12;;;;;;;14.80;9.70;;;;;;;22.71;25.43;100528.30;109600;1262;21968;-78
2022/04/14 12:15:42;;;;;;;12.30;10.00;;;;;;;22.71;25.35;100527.64;109780;1260;22043;-77
2022/04/14 12:18:12;;;;;;;14.70;10.40;;;;;;;22.70;25.44;100524.36;110091;1255;23071;-78
2022/04/14 12:20:43;;;;;;;16.50;10.00;;;;;;;22.68;25.44;100526.42;110444;1255;22043;-77
2022/04/14 12:23:13;;;;;;;12.70;9.70;;;;;;;22.67;25.26;100526.86;110528;1249;21967;-76